sensor_id;sensor_type;location;lat;lon;timestamp;pressure;altitude;pressure_sealevel;temperature;humidity
52625;BME280;38519;52.540;13.410;2023-03-23T00:00:49;99775.31;;;11.72;89.78
52625;BME280;38519;52.540;13.410;2023-03-23T00:03:14;99777.50;;;11.64;89.63
52625;BME280;38519;52.540;13.410;2023-03-23T00:05:39;99769.84;;;11.68;89.99
52625;BME280;38519;52.540;13.410;2023-03-23T00:08:06;99767.06;;;11.64;90.07
52625;BME280;38519;52.540;13.410;2023-03-23T00:10:34;99759.53;;;11.54;90.81
52625;BME280;38519;52.540;13.410;2023-03-23T00:13:00;99758.72;;;11.55;90.99
52625;BME280;38519;52.540;13.410;2023-03-23T00:15:29;99750.69;;;11.52;90.86
52625;BME280;38519;52.540;13.410;2023-03-23T00:17:58;99757.75;;;11.53;91.14
52625;BME280;38519;52.540;13.410;2023-03-23T00:20:30;99767.22;;;11.51;91.29
52625;BME280;38519;52.540;13.410;2023-03-23T00:23:04;99750.53;;;11.49;91.29
52625;BME280;38519;52.540;13.410;2023-03-23T00:25:30;99756.50;;;11.46;91.33
52625;BME280;38519;52.540;13.410;2023-03-23T00:27:55;99749.13;;;11.39;92.08
52625;BME280;38519;52.540;13.410;2023-03-23T00:30:21;99747.44;;;11.40;92.37
52625;BME280;38519;52.540;13.410;2023-03-23T00:32:47;99740.25;;;11.36;92.67
52625;BME280;38519;52.540;13.410;2023-03-23T00:35:13;99739.34;;;11.35;92.74
52625;BME280;38519;52.540;13.410;2023-03-23T00:37:39;99740.31;;;11.37;92.86
52625;BME280;38519;52.540;13.410;2023-03-23T00:40:05;99730.47;;;11.32;92.83
52625;BME280;38519;52.540;13.410;2023-03-23T00:42:35;99727.00;;;11.33;92.79
52625;BME280;38519;52.540;13.410;2023-03-23T00:45:04;99723.34;;;11.29;93.17
52625;BME280;38519;52.540;13.410;2023-03-23T00:47:36;99722.38;;;11.27;92.94
52625;BME280;38519;52.540;13.410;2023-03-23T00:50:02;99714.44;;;11.25;93.14
52625;BME280;38519;52.540;13.410;2023-03-23T00:52:27;99713.28;;;11.20;93.35
52625;BME280;38519;52.540;13.410;2023-03-23T00:54:53;99713.22;;;11.19;93.87
52625;BME280;38519;52.540;13.410;2023-03-23T00:57:18;99716.06;;;11.23;92.89
52625;BME280;38519;52.540;13.410;2023-03-23T00:59:44;99707.25;;;11.21;93.39
52625;BME280;38519;52.540;13.410;2023-03-23T01:02:09;99703.66;;;11.19;93.40
52625;BME280;38519;52.540;13.410;2023-03-23T01:04:37;99699.91;;;11.14;93.64
52625;BME280;38519;52.540;13.410;2023-03-23T01:07:02;99694.00;;;11.02;94.43
52625;BME280;38519;52.540;13.410;2023-03-23T01:09:29;99701.56;;;10.97;94.90
52625;BME280;38519;52.540;13.410;2023-03-23T01:11:55;99700.78;;;10.98;94.58
52625;BME280;38519;52.540;13.410;2023-03-23T01:14:21;99703.56;;;11.01;94.64
52625;BME280;38519;52.540;13.410;2023-03-23T01:16:46;99699.31;;;11.03;94.36
52625;BME280;38519;52.540;13.410;2023-03-23T01:19:12;99700.03;;;11.01;94.69
52625;BME280;38519;52.540;13.410;2023-03-23T01:21:37;99691.72;;;10.91;95.39
52625;BME280;38519;52.540;13.410;2023-03-23T01:24:02;99696.75;;;10.88;95.32
52625;BME280;38519;52.540;13.410;2023-03-23T01:26:28;99690.78;;;10.91;95.24
52625;BME280;38519;52.540;13.410;2023-03-23T01:28:53;99686.53;;;10.93;95.18
52625;BME280;38519;52.540;13.410;2023-03-23T01:31:20;99682.63;;;10.85;95.66
52625;BME280;38519;52.540;13.410;2023-03-23T01:33:45;99675.88;;;10.88;95.56
52625;BME280;38519;52.540;13.410;2023-03-23T01:36:12;99677.38;;;10.85;96.18
52625;BME280;38519;52.540;13.410;2023-03-23T01:38:38;99669.00;;;10.90;95.36
52625;BME280;38519;52.540;13.410;2023-03-23T01:41:04;99676.94;;;10.92;95.50
52625;BME280;38519;52.540;13.410;2023-03-23T01:43:29;99678.56;;;10.90;95.35
52625;BME280;38519;52.540;13.410;2023-03-23T01:45:55;99681.09;;;10.88;95.58
52625;BME280;38519;52.540;13.410;2023-03-23T01:48:24;99676.75;;;10.89;96.07
52625;BME280;38519;52.540;13.410;2023-03-23T01:53:18;99680.75;;;10.82;96.29
52625;BME280;38519;52.540;13.410;2023-03-23T01:55:43;99665.25;;;10.85;95.88
52625;BME280;38519;52.540;13.410;2023-03-23T01:58:13;99662.97;;;10.91;95.34
52625;BME280;38519;52.540;13.410;2023-03-23T02:00:39;99658.06;;;10.98;94.87
52625;BME280;38519;52.540;13.410;2023-03-23T02:03:07;99663.19;;;10.96;95.42
52625;BME280;38519;52.540;13.410;2023-03-23T02:05:37;99653.00;;;11.01;94.78
52625;BME280;38519;52.540;13.410;2023-03-23T02:08:03;99648.91;;;11.06;94.23
52625;BME280;38519;52.540;13.410;2023-03-23T02:10:30;99644.44;;;11.03;93.83
52625;BME280;38519;52.540;13.410;2023-03-23T02:12:56;99641.91;;;11.05;94.17
52625;BME280;38519;52.540;13.410;2023-03-23T02:15:23;99653.84;;;11.00;94.35
52625;BME280;38519;52.540;13.410;2023-03-23T02:17:57;99654.81;;;11.02;94.09
52625;BME280;38519;52.540;13.410;2023-03-23T02:23:14;99645.50;;;11.07;93.55
52625;BME280;38519;52.540;13.410;2023-03-23T02:25:52;99643.13;;;11.11;93.58
52625;BME280;38519;52.540;13.410;2023-03-23T02:33:58;99639.13;;;11.18;92.63
52625;BME280;38519;52.540;13.410;2023-03-23T02:39:13;99638.56;;;11.24;91.88
52625;BME280;38519;52.540;13.410;2023-03-23T02:41:43;99649.13;;;11.25;91.62
52625;BME280;38519;52.540;13.410;2023-03-23T02:44:10;99644.69;;;11.24;91.91
52625;BME280;38519;52.540;13.410;2023-03-23T02:46:36;99652.88;;;11.30;91.56
52625;BME280;38519;52.540;13.410;2023-03-23T02:49:03;99655.47;;;11.30;92.35
52625;BME280;38519;52.540;13.410;2023-03-23T02:51:30;99654.41;;;11.27;93.82
52625;BME280;38519;52.540;13.410;2023-03-23T02:53:58;99644.53;;;11.21;94.78
52625;BME280;38519;52.540;13.410;2023-03-23T02:56:25;99631.53;;;11.23;95.39
52625;BME280;38519;52.540;13.410;2023-03-23T02:58:52;99635.56;;;11.16;96.50
52625;BME280;38519;52.540;13.410;2023-03-23T03:03:54;99633.75;;;11.15;97.47
52625;BME280;38519;52.540;13.410;2023-03-23T03:06:29;99625.91;;;11.15;97.57
52625;BME280;38519;52.540;13.410;2023-03-23T03:09:05;99629.44;;;11.16;97.96
52625;BME280;38519;52.540;13.410;2023-03-23T03:11:32;99624.28;;;11.17;97.51
52625;BME280;38519;52.540;13.410;2023-03-23T03:21:15;99623.78;;;11.24;96.25
52625;BME280;38519;52.540;13.410;2023-03-23T03:23:45;99627.28;;;11.25;96.13
52625;BME280;38519;52.540;13.410;2023-03-23T03:26:14;99622.38;;;11.31;96.52
52625;BME280;38519;52.540;13.410;2023-03-23T03:28:46;99624.91;;;11.29;95.87
52625;BME280;38519;52.540;13.410;2023-03-23T03:31:17;99620.38;;;11.25;96.66
52625;BME280;38519;52.540;13.410;2023-03-23T03:33:43;99632.75;;;11.29;95.97
52625;BME280;38519;52.540;13.410;2023-03-23T03:36:13;99628.53;;;11.32;95.74
52625;BME280;38519;52.540;13.410;2023-03-23T03:38:43;99625.00;;;11.31;96.18
52625;BME280;38519;52.540;13.410;2023-03-23T03:41:09;99638.81;;;11.28;97.19
52625;BME280;38519;52.540;13.410;2023-03-23T03:43:34;99634.41;;;11.27;97.53
52625;BME280;38519;52.540;13.410;2023-03-23T03:46:00;99633.03;;;11.18;98.55
52625;BME280;38519;52.540;13.410;2023-03-23T03:48:25;99627.63;;;11.15;99.40
52625;BME280;38519;52.540;13.410;2023-03-23T03:50:50;99624.13;;;11.14;100.00
52625;BME280;38519;52.540;13.410;2023-03-23T03:53:17;99618.50;;;11.06;100.00
52625;BME280;38519;52.540;13.410;2023-03-23T03:55:42;99614.81;;;11.03;100.00
52625;BME280;38519;52.540;13.410;2023-03-23T03:58:13;99624.59;;;11.07;100.00
52625;BME280;38519;52.540;13.410;2023-03-23T04:00:39;99625.38;;;11.04;100.00
52625;BME280;38519;52.540;13.410;2023-03-23T04:03:04;99621.75;;;11.02;100.00
52625;BME280;38519;52.540;13.410;2023-03-23T04:05:29;99628.88;;;11.05;100.00
52625;BME280;38519;52.540;13.410;2023-03-23T04:07:56;99626.09;;;11.02;100.00
52625;BME280;38519;52.540;13.410;2023-03-23T04:10:27;99622.16;;;10.93;100.00
52625;BME280;38519;52.540;13.410;2023-03-23T04:12:52;99620.34;;;10.92;100.00
52625;BME280;38519;52.540;13.410;2023-03-23T04:15:17;99607.00;;;11.03;100.00
52625;BME280;38519;52.540;13.410;2023-03-23T04:17:43;99599.16;;;11.03;100.00
52625;BME280;38519;52.540;13.410;2023-03-23T04:20:10;99602.41;;;10.99;100.00
52625;BME280;38519;52.540;13.410;2023-03-23T04:22:42;99618.25;;;11.02;100.00
52625;BME280;38519;52.540;13.410;2023-03-23T04:25:09;99612.94;;;11.00;100.00
52625;BME280;38519;52.540;13.410;2023-03-23T04:27:36;99612.22;;;11.03;100.00
52625;BME280;38519;52.540;13.410;2023-03-23T04:30:01;99606.91;;;11.01;100.00
52625;BME280;38519;52.540;13.410;2023-03-23T04:32:28;99599.16;;;11.03;100.00
52625;BME280;38519;52.540;13.410;2023-03-23T04:34:56;99603.72;;;11.07;100.00
52625;BME280;38519;52.540;13.410;2023-03-23T04:37:23;99613.81;;;11.01;100.00
52625;BME280;38519;52.540;13.410;2023-03-23T04:39:51;99605.34;;;11.05;100.00
52625;BME280;38519;52.540;13.410;2023-03-23T04:42:29;99602.97;;;10.93;100.00
52625;BME280;38519;52.540;13.410;2023-03-23T04:44:55;99606.50;;;10.93;100.00
52625;BME280;38519;52.540;13.410;2023-03-23T04:47:20;99613.56;;;10.80;100.00
52625;BME280;38519;52.540;13.410;2023-03-23T04:49:45;99627.59;;;10.82;100.00
52625;BME280;38519;52.540;13.410;2023-03-23T04:52:11;99628.56;;;10.67;100.00
52625;BME280;38519;52.540;13.410;2023-03-23T04:54:36;99630.28;;;10.67;100.00
52625;BME280;38519;52.540;13.410;2023-03-23T04:57:02;99639.41;;;10.59;100.00
52625;BME280;38519;52.540;13.410;2023-03-23T04:59:28;99636.97;;;10.62;100.00
52625;BME280;38519;52.540;13.410;2023-03-23T05:01:55;99644.28;;;10.52;100.00
52625;BME280;38519;52.540;13.410;2023-03-23T05:04:21;99651.50;;;10.56;100.00
52625;BME280;38519;52.540;13.410;2023-03-23T05:06:47;99647.88;;;10.54;100.00
52625;BME280;38519;52.540;13.410;2023-03-23T05:09:13;99651.84;;;10.63;100.00
52625;BME280;38519;52.540;13.410;2023-03-23T05:11:38;99645.69;;;10.62;100.00
52625;BME280;38519;52.540;13.410;2023-03-23T05:14:04;99636.94;;;10.45;100.00
52625;BME280;38519;52.540;13.410;2023-03-23T05:16:29;99640.78;;;10.52;100.00
52625;BME280;38519;52.540;13.410;2023-03-23T05:18:55;99633.59;;;10.48;100.00
52625;BME280;38519;52.540;13.410;2023-03-23T05:21:22;99630.31;;;10.35;100.00
52625;BME280;38519;52.540;13.410;2023-03-23T05:23:47;99631.47;;;10.41;100.00
52625;BME280;38519;52.540;13.410;2023-03-23T05:26:19;99632.53;;;10.44;100.00
52625;BME280;38519;52.540;13.410;2023-03-23T05:28:44;99628.69;;;10.37;100.00
52625;BME280;38519;52.540;13.410;2023-03-23T05:31:10;99621.66;;;10.36;100.00
52625;BME280;38519;52.540;13.410;2023-03-23T05:33:35;99621.66;;;10.36;100.00
52625;BME280;38519;52.540;13.410;2023-03-23T05:36:01;99632.00;;;10.35;100.00
52625;BME280;38519;52.540;13.410;2023-03-23T05:38:29;99632.38;;;10.26;100.00
52625;BME280;38519;52.540;13.410;2023-03-23T05:40:57;99644.44;;;10.24;100.00
52625;BME280;38519;52.540;13.410;2023-03-23T05:43:24;99649.00;;;10.28;100.00
52625;BME280;38519;52.540;13.410;2023-03-23T05:45:50;99646.94;;;10.23;100.00
52625;BME280;38519;52.540;13.410;2023-03-23T05:48:15;99648.38;;;10.17;100.00
52625;BME280;38519;52.540;13.410;2023-03-23T05:50:41;99646.59;;;10.16;100.00
52625;BME280;38519;52.540;13.410;2023-03-23T05:53:06;99639.31;;;10.11;100.00
52625;BME280;38519;52.540;13.410;2023-03-23T05:55:31;99645.25;;;10.08;100.00
52625;BME280;38519;52.540;13.410;2023-03-23T05:57:59;99647.78;;;10.07;100.00
52625;BME280;38519;52.540;13.410;2023-03-23T06:00:24;99649.38;;;10.05;100.00
52625;BME280;38519;52.540;13.410;2023-03-23T06:02:50;99652.63;;;10.00;100.00
52625;BME280;38519;52.540;13.410;2023-03-23T06:05:19;99657.84;;;10.00;100.00
52625;BME280;38519;52.540;13.410;2023-03-23T06:07:44;99654.88;;;9.94;100.00
52625;BME280;38519;52.540;13.410;2023-03-23T06:10:11;99655.50;;;9.90;100.00
52625;BME280;38519;52.540;13.410;2023-03-23T06:12:37;99659.47;;;9.83;100.00
52625;BME280;38519;52.540;13.410;2023-03-23T06:15:03;99653.97;;;9.79;100.00
52625;BME280;38519;52.540;13.410;2023-03-23T06:17:30;99665.41;;;9.81;100.00
52625;BME280;38519;52.540;13.410;2023-03-23T06:19:55;99665.22;;;9.78;100.00
52625;BME280;38519;52.540;13.410;2023-03-23T06:22:20;99667.09;;;9.80;100.00
52625;BME280;38519;52.540;13.410;2023-03-23T06:24:46;99660.19;;;9.81;100.00
52625;BME280;38519;52.540;13.410;2023-03-23T06:27:12;99660.91;;;9.78;100.00
52625;BME280;38519;52.540;13.410;2023-03-23T06:29:38;99663.59;;;9.80;100.00
52625;BME280;38519;52.540;13.410;2023-03-23T06:32:04;99675.66;;;9.78;100.00
52625;BME280;38519;52.540;13.410;2023-03-23T06:34:30;99667.00;;;9.79;100.00
52625;BME280;38519;52.540;13.410;2023-03-23T06:36:56;99661.09;;;9.81;100.00
52625;BME280;38519;52.540;13.410;2023-03-23T06:39:21;99662.06;;;9.83;100.00
52625;BME280;38519;52.540;13.410;2023-03-23T06:41:47;99677.63;;;9.82;100.00
52625;BME280;38519;52.540;13.410;2023-03-23T06:44:12;99676.22;;;9.87;100.00
52625;BME280;38519;52.540;13.410;2023-03-23T06:46:38;99678.00;;;9.88;100.00
52625;BME280;38519;52.540;13.410;2023-03-23T06:49:04;99676.63;;;9.95;100.00
52625;BME280;38519;52.540;13.410;2023-03-23T06:51:30;99669.00;;;9.98;100.00
52625;BME280;38519;52.540;13.410;2023-03-23T06:53:56;99669.53;;;9.92;100.00
52625;BME280;38519;52.540;13.410;2023-03-23T06:56:22;99673.94;;;9.93;100.00
52625;BME280;38519;52.540;13.410;2023-03-23T06:58:47;99678.44;;;9.96;100.00
52625;BME280;38519;52.540;13.410;2023-03-23T07:01:13;99684.91;;;10.02;100.00
52625;BME280;38519;52.540;13.410;2023-03-23T07:03:40;99685.47;;;9.97;100.00
52625;BME280;38519;52.540;13.410;2023-03-23T07:06:06;99680.34;;;9.98;100.00
52625;BME280;38519;52.540;13.410;2023-03-23T07:08:31;99673.31;;;9.97;100.00
52625;BME280;38519;52.540;13.410;2023-03-23T07:10:57;99677.81;;;10.00;100.00
52625;BME280;38519;52.540;13.410;2023-03-23T07:13:22;99671.16;;;10.05;100.00
52625;BME280;38519;52.540;13.410;2023-03-23T07:15:48;99675.47;;;10.05;100.00
52625;BME280;38519;52.540;13.410;2023-03-23T07:18:14;99668.72;;;10.08;100.00
52625;BME280;38519;52.540;13.410;2023-03-23T07:20:39;99652.34;;;10.11;100.00
52625;BME280;38519;52.540;13.410;2023-03-23T07:23:06;99629.78;;;10.11;100.00
52625;BME280;38519;52.540;13.410;2023-03-23T07:25:34;99659.19;;;10.09;100.00
52625;BME280;38519;52.540;13.410;2023-03-23T07:28:00;99673.59;;;10.02;100.00
52625;BME280;38519;52.540;13.410;2023-03-23T07:30:26;99659.53;;;10.15;100.00
52625;BME280;38519;52.540;13.410;2023-03-23T07:32:51;99664.47;;;10.25;100.00
52625;BME280;38519;52.540;13.410;2023-03-23T07:35:17;99661.78;;;10.24;100.00
52625;BME280;38519;52.540;13.410;2023-03-23T07:37:42;99657.22;;;10.19;100.00
52625;BME280;38519;52.540;13.410;2023-03-23T07:40:07;99660.00;;;10.23;100.00
52625;BME280;38519;52.540;13.410;2023-03-23T07:42:33;99668.34;;;10.17;100.00
52625;BME280;38519;52.540;13.410;2023-03-23T07:44:58;99660.31;;;10.29;100.00
52625;BME280;38519;52.540;13.410;2023-03-23T07:47:24;99663.09;;;10.32;100.00
52625;BME280;38519;52.540;13.410;2023-03-23T07:49:49;99636.19;;;10.48;100.00
52625;BME280;38519;52.540;13.410;2023-03-23T07:52:15;99624.25;;;10.51;100.00
52625;BME280;38519;52.540;13.410;2023-03-23T07:54:40;99605.28;;;10.39;100.00
52625;BME280;38519;52.540;13.410;2023-03-23T07:57:05;99599.97;;;10.37;100.00
52625;BME280;38519;52.540;13.410;2023-03-23T07:59:31;99592.66;;;10.32;100.00
52625;BME280;38519;52.540;13.410;2023-03-23T08:01:56;99620.34;;;10.45;100.00
52625;BME280;38519;52.540;13.410;2023-03-23T08:04:23;99638.88;;;10.49;100.00
52625;BME280;38519;52.540;13.410;2023-03-23T08:06:48;99643.66;;;10.56;100.00
52625;BME280;38519;52.540;13.410;2023-03-23T08:09:14;99651.66;;;10.60;100.00
52625;BME280;38519;52.540;13.410;2023-03-23T08:11:40;99648.47;;;10.65;100.00
52625;BME280;38519;52.540;13.410;2023-03-23T08:14:06;99653.94;;;10.70;100.00
52625;BME280;38519;52.540;13.410;2023-03-23T08:16:32;99667.97;;;10.72;100.00
52625;BME280;38519;52.540;13.410;2023-03-23T08:18:57;99673.47;;;10.77;100.00
52625;BME280;38519;52.540;13.410;2023-03-23T08:21:23;99668.16;;;10.75;100.00
52625;BME280;38519;52.540;13.410;2023-03-23T08:23:48;99664.81;;;10.78;100.00
52625;BME280;38519;52.540;13.410;2023-03-23T08:26:14;99675.34;;;10.79;100.00
52625;BME280;38519;52.540;13.410;2023-03-23T08:28:40;99676.81;;;10.74;100.00
52625;BME280;38519;52.540;13.410;2023-03-23T08:31:14;99677.31;;;10.83;100.00
52625;BME280;38519;52.540;13.410;2023-03-23T08:33:40;99672.75;;;10.79;100.00
52625;BME280;38519;52.540;13.410;2023-03-23T08:36:06;99672.75;;;10.79;100.00
52625;BME280;38519;52.540;13.410;2023-03-23T08:38:34;99636.91;;;10.77;100.00
52625;BME280;38519;52.540;13.410;2023-03-23T08:41:00;99633.75;;;10.82;100.00
52625;BME280;38519;52.540;13.410;2023-03-23T08:43:26;99659.44;;;10.91;100.00
52625;BME280;38519;52.540;13.410;2023-03-23T08:45:52;99677.00;;;10.93;100.00
52625;BME280;38519;52.540;13.410;2023-03-23T08:48:18;99675.03;;;11.06;100.00
52625;BME280;38519;52.540;13.410;2023-03-23T08:50:43;99678.50;;;11.21;100.00
52625;BME280;38519;52.540;13.410;2023-03-23T08:53:08;99678.03;;;11.28;100.00
52625;BME280;38519;52.540;13.410;2023-03-23T08:55:33;99679.81;;;11.29;100.00
52625;BME280;38519;52.540;13.410;2023-03-23T08:57:59;99667.56;;;11.28;100.00
52625;BME280;38519;52.540;13.410;2023-03-23T09:00:24;99670.47;;;11.35;100.00
52625;BME280;38519;52.540;13.410;2023-03-23T09:02:52;99671.06;;;11.45;100.00
52625;BME280;38519;52.540;13.410;2023-03-23T09:05:19;99668.13;;;11.56;100.00
52625;BME280;38519;52.540;13.410;2023-03-23T09:07:47;99687.72;;;11.64;100.00
52625;BME280;38519;52.540;13.410;2023-03-23T09:10:12;99689.66;;;11.68;100.00
52625;BME280;38519;52.540;13.410;2023-03-23T09:12:38;99698.75;;;11.58;100.00
52625;BME280;38519;52.540;13.410;2023-03-23T09:15:04;99696.97;;;11.57;100.00
52625;BME280;38519;52.540;13.410;2023-03-23T09:17:30;99701.59;;;11.63;100.00
52625;BME280;38519;52.540;13.410;2023-03-23T09:19:57;99697.25;;;11.63;100.00
52625;BME280;38519;52.540;13.410;2023-03-23T09:22:23;99691.31;;;11.66;100.00
52625;BME280;38519;52.540;13.410;2023-03-23T09:24:49;99687.88;;;11.67;100.00
52625;BME280;38519;52.540;13.410;2023-03-23T09:27:16;99683.25;;;11.79;100.00
52625;BME280;38519;52.540;13.410;2023-03-23T09:29:41;99683.72;;;11.89;100.00
52625;BME280;38519;52.540;13.410;2023-03-23T09:32:09;99672.53;;;11.91;100.00
52625;BME280;38519;52.540;13.410;2023-03-23T09:34:34;99681.19;;;11.90;100.00
52625;BME280;38519;52.540;13.410;2023-03-23T09:37:01;99680.94;;;12.02;100.00
52625;BME280;38519;52.540;13.410;2023-03-23T09:39:29;99682.25;;;12.10;100.00
52625;BME280;38519;52.540;13.410;2023-03-23T09:42:06;99685.69;;;12.27;100.00
52625;BME280;38519;52.540;13.410;2023-03-23T09:49:56;99691.47;;;12.38;100.00
52625;BME280;38519;52.540;13.410;2023-03-23T09:52:22;99691.47;;;12.56;100.00
52625;BME280;38519;52.540;13.410;2023-03-23T09:54:53;99689.94;;;12.61;100.00
52625;BME280;38519;52.540;13.410;2023-03-23T10:02:22;99702.19;;;12.98;100.00
52625;BME280;38519;52.540;13.410;2023-03-23T10:04:52;99687.25;;;13.15;100.00
52625;BME280;38519;52.540;13.410;2023-03-23T10:07:20;99696.91;;;13.16;100.00
52625;BME280;38519;52.540;13.410;2023-03-23T10:09:46;99707.94;;;13.09;100.00
52625;BME280;38519;52.540;13.410;2023-03-23T10:17:17;99696.00;;;13.16;100.00
52625;BME280;38519;52.540;13.410;2023-03-23T10:22:14;99688.13;;;13.16;100.00
52625;BME280;38519;52.540;13.410;2023-03-23T10:24:47;99692.28;;;13.30;100.00
52625;BME280;38519;52.540;13.410;2023-03-23T10:29:45;99679.28;;;13.51;100.00
52625;BME280;38519;52.540;13.410;2023-03-23T10:32:15;99682.19;;;13.38;100.00
52625;BME280;38519;52.540;13.410;2023-03-23T10:34:50;99671.34;;;13.50;100.00
52625;BME280;38519;52.540;13.410;2023-03-23T10:39:56;99669.66;;;13.71;100.00
52625;BME280;38519;52.540;13.410;2023-03-23T10:42:27;99672.81;;;13.83;100.00
52625;BME280;38519;52.540;13.410;2023-03-23T10:44:53;99671.78;;;13.80;100.00
52625;BME280;38519;52.540;13.410;2023-03-23T10:47:20;99672.56;;;13.77;100.00
52625;BME280;38519;52.540;13.410;2023-03-23T10:49:53;99684.09;;;13.81;100.00
52625;BME280;38519;52.540;13.410;2023-03-23T10:54:55;99675.59;;;13.67;100.00
52625;BME280;38519;52.540;13.410;2023-03-23T10:57:22;99678.63;;;13.76;100.00
52625;BME280;38519;52.540;13.410;2023-03-23T10:59:48;99675.72;;;13.70;100.00
52625;BME280;38519;52.540;13.410;2023-03-23T11:02:16;99669.81;;;13.74;100.00
52625;BME280;38519;52.540;13.410;2023-03-23T11:04:44;99675.31;;;13.80;100.00
52625;BME280;38519;52.540;13.410;2023-03-23T11:07:15;99682.28;;;13.80;100.00
52625;BME280;38519;52.540;13.410;2023-03-23T11:09:51;99681.66;;;13.86;100.00
52625;BME280;38519;52.540;13.410;2023-03-23T11:12:17;99687.03;;;13.89;100.00
52625;BME280;38519;52.540;13.410;2023-03-23T11:14:43;99690.34;;;13.84;100.00
52625;BME280;38519;52.540;13.410;2023-03-23T11:20:11;99698.53;;;13.71;100.00
52625;BME280;38519;52.540;13.410;2023-03-23T11:22:37;99695.25;;;13.77;100.00
52625;BME280;38519;52.540;13.410;2023-03-23T11:25:03;99697.75;;;13.93;100.00
52625;BME280;38519;52.540;13.410;2023-03-23T11:27:29;99708.00;;;14.08;100.00
52625;BME280;38519;52.540;13.410;2023-03-23T11:30:40;99704.72;;;14.14;100.00
52625;BME280;38519;52.540;13.410;2023-03-23T11:32:42;99696.25;;;14.42;100.00
52625;BME280;38519;52.540;13.410;2023-03-23T11:35:15;99698.28;;;14.49;100.00
52625;BME280;38519;52.540;13.410;2023-03-23T11:37:42;99702.34;;;14.41;100.00
52625;BME280;38519;52.540;13.410;2023-03-23T11:42:37;99707.78;;;14.46;100.00
52625;BME280;38519;52.540;13.410;2023-03-23T11:45:12;99703.38;;;14.45;100.00
52625;BME280;38519;52.540;13.410;2023-03-23T11:47:39;99706.31;;;14.52;100.00
52625;BME280;38519;52.540;13.410;2023-03-23T11:50:45;99710.34;;;14.65;100.00
52625;BME280;38519;52.540;13.410;2023-03-23T11:53:13;99703.69;;;14.73;100.00
52625;BME280;38519;52.540;13.410;2023-03-23T11:58:11;99709.72;;;14.93;100.00
52625;BME280;38519;52.540;13.410;2023-03-23T12:00:38;99717.25;;;14.84;100.00
52625;BME280;38519;52.540;13.410;2023-03-23T12:03:07;99712.53;;;14.75;100.00
52625;BME280;38519;52.540;13.410;2023-03-23T12:10:47;99711.91;;;14.60;100.00
52625;BME280;38519;52.540;13.410;2023-03-23T12:21:06;99705.47;;;14.53;100.00
52625;BME280;38519;52.540;13.410;2023-03-23T12:28:32;99702.34;;;14.62;100.00
52625;BME280;38519;52.540;13.410;2023-03-23T12:36:10;99700.56;;;14.61;100.00
52625;BME280;38519;52.540;13.410;2023-03-23T12:38:45;99684.59;;;14.56;100.00
52625;BME280;38519;52.540;13.410;2023-03-23T12:41:18;99692.09;;;14.68;100.00
52625;BME280;38519;52.540;13.410;2023-03-23T12:43:52;99680.56;;;14.65;100.00
52625;BME280;38519;52.540;13.410;2023-03-23T12:50:05;99679.06;;;14.71;100.00
52625;BME280;38519;52.540;13.410;2023-03-23T12:52:14;99672.81;;;14.68;100.00
52625;BME280;38519;52.540;13.410;2023-03-23T13:02:41;99678.63;;;15.53;100.00
52625;BME280;38519;52.540;13.410;2023-03-23T13:05:13;99680.97;;;15.69;100.00
52625;BME280;38519;52.540;13.410;2023-03-23T13:07:42;99687.22;;;15.73;100.00
52625;BME280;38519;52.540;13.410;2023-03-23T13:10:21;99688.44;;;16.07;98.19
52625;BME280;38519;52.540;13.410;2023-03-23T13:12:47;99683.44;;;15.89;96.94
52625;BME280;38519;52.540;13.410;2023-03-23T13:23:58;99686.13;;;17.26;85.47
52625;BME280;38519;52.540;13.410;2023-03-23T13:26:20;99690.41;;;17.23;86.10
52625;BME280;38519;52.540;13.410;2023-03-23T13:31:22;99678.91;;;16.63;87.31
52625;BME280;38519;52.540;13.410;2023-03-23T13:33:51;99680.97;;;17.93;80.70
52625;BME280;38519;52.540;13.410;2023-03-23T13:36:19;99669.59;;;16.74;85.35
52625;BME280;38519;52.540;13.410;2023-03-23T13:38:49;99656.25;;;16.97;83.70
52625;BME280;38519;52.540;13.410;2023-03-23T13:41:16;99651.63;;;17.51;80.52
52625;BME280;38519;52.540;13.410;2023-03-23T13:43:42;99645.25;;;17.12;82.15
52625;BME280;38519;52.540;13.410;2023-03-23T13:48:45;99645.03;;;17.66;79.49
52625;BME280;38519;52.540;13.410;2023-03-23T13:51:25;99635.25;;;17.00;80.80
52625;BME280;38519;52.540;13.410;2023-03-23T13:54:03;99636.97;;;17.30;78.75
52625;BME280;38519;52.540;13.410;2023-03-23T13:56:36;99642.53;;;17.09;80.04
52625;BME280;38519;52.540;13.410;2023-03-23T13:59:05;99640.25;;;16.91;80.41
52625;BME280;38519;52.540;13.410;2023-03-23T14:01:36;99642.66;;;16.29;83.07
52625;BME280;38519;52.540;13.410;2023-03-23T14:04:04;99637.88;;;16.17;84.24
52625;BME280;38519;52.540;13.410;2023-03-23T14:06:33;99649.25;;;16.16;82.69
52625;BME280;38519;52.540;13.410;2023-03-23T14:09:03;99658.03;;;16.15;83.24
52625;BME280;38519;52.540;13.410;2023-03-23T14:11:30;99670.84;;;16.86;79.54
52625;BME280;38519;52.540;13.410;2023-03-23T14:14:01;99671.44;;;17.06;78.50
52625;BME280;38519;52.540;13.410;2023-03-23T14:16:32;99659.72;;;16.69;79.95
52625;BME280;38519;52.540;13.410;2023-03-23T14:19:01;99663.72;;;17.42;76.65
52625;BME280;38519;52.540;13.410;2023-03-23T14:24:01;99659.19;;;18.02;74.18
52625;BME280;38519;52.540;13.410;2023-03-23T14:26:27;99653.50;;;17.87;72.52
52625;BME280;38519;52.540;13.410;2023-03-23T14:28:53;99664.69;;;18.10;71.61
52625;BME280;38519;52.540;13.410;2023-03-23T14:31:25;99662.16;;;18.14;71.28
52625;BME280;38519;52.540;13.410;2023-03-23T14:33:51;99654.81;;;18.04;72.23